createdAt,value
2023-05-19T00:02:06.005Z,11.99
2023-05-19T00:04:33.772Z,12.02
2023-05-19T00:07:01.936Z,11.98
2023-05-19T00:09:29.104Z,12.05
2023-05-19T00:11:57.947Z,11.97
2023-05-19T00:14:25.079Z,11.99
2023-05-19T00:16:52.298Z,11.96
2023-05-19T00:19:19.012Z,11.96
2023-05-19T00:21:45.759Z,12.02
2023-05-19T00:24:13.220Z,12.01
2023-05-19T00:26:40.002Z,11.98
2023-05-19T00:29:08.026Z,11.93
2023-05-19T00:31:34.771Z,11.88
2023-05-19T00:34:01.590Z,11.90
2023-05-19T00:36:28.242Z,11.90
2023-05-19T00:38:54.910Z,11.89
2023-05-19T00:41:21.577Z,11.93
2023-05-19T00:43:48.282Z,11.88
2023-05-19T00:46:16.309Z,11.84
2023-05-19T00:48:44.749Z,11.90
2023-05-19T00:51:14.649Z,11.91
2023-05-19T00:53:41.542Z,11.82
2023-05-19T00:56:08.322Z,11.85
2023-05-19T00:58:36.764Z,11.90
2023-05-19T01:01:04.339Z,11.85
2023-05-19T01:03:37.291Z,11.86
2023-05-19T01:06:07.896Z,11.82
2023-05-19T01:08:36.399Z,11.79
2023-05-19T01:11:03.486Z,11.81
2023-05-19T01:13:30.866Z,11.82
2023-05-19T01:16:01.621Z,11.90
2023-05-19T01:18:43.620Z,11.87
2023-05-19T01:21:44.294Z,11.84
2023-05-19T01:24:32.947Z,11.79
2023-05-19T01:27:15.375Z,11.77
2023-05-19T01:29:52.946Z,11.79
2023-05-19T01:32:23.743Z,11.72
2023-05-19T01:34:51.075Z,11.74
2023-05-19T01:37:19.571Z,11.75
2023-05-19T01:39:46.484Z,11.71
2023-05-19T01:42:14.426Z,11.67
2023-05-19T01:44:41.807Z,11.66
2023-05-19T01:47:10.859Z,11.63
2023-05-19T01:49:38.904Z,11.63
2023-05-19T01:52:06.183Z,11.67
2023-05-19T01:54:32.955Z,11.70
2023-05-19T01:57:07.321Z,11.58
2023-05-19T01:59:46.559Z,11.64
2023-05-19T02:02:26.263Z,11.61
2023-05-19T02:04:59.830Z,11.56
2023-05-19T02:07:35.373Z,11.60
2023-05-19T02:10:06.405Z,11.68
2023-05-19T02:12:35.111Z,11.62
2023-05-19T02:15:06.294Z,11.60
2023-05-19T02:17:36.428Z,11.59
2023-05-19T02:20:05.928Z,11.54
2023-05-19T02:22:34.749Z,11.57
2023-05-19T02:25:01.481Z,11.64
2023-05-19T02:27:28.115Z,11.65
2023-05-19T02:29:54.907Z,11.54
2023-05-19T02:32:21.861Z,11.57
2023-05-19T02:34:48.486Z,11.54
2023-05-19T02:37:16.787Z,11.59
2023-05-19T02:39:43.659Z,11.56
2023-05-19T02:42:10.728Z,11.52
2023-05-19T02:44:37.353Z,11.49
2023-05-19T02:47:04.335Z,11.54
2023-05-19T02:49:35.711Z,11.53
2023-05-19T02:52:03.120Z,11.42
2023-05-19T02:54:31.582Z,11.52
2023-05-19T02:56:58.683Z,11.55
2023-05-19T02:59:25.835Z,11.56
2023-05-19T03:01:55.879Z,11.55
2023-05-19T03:04:22.532Z,11.46
2023-05-19T03:06:50.176Z,11.43
2023-05-19T03:09:16.971Z,11.50
2023-05-19T03:11:45.055Z,11.47
2023-05-19T03:14:14.359Z,11.50
2023-05-19T03:16:42.190Z,11.45
2023-05-19T03:19:09.498Z,11.42
2023-05-19T03:21:36.675Z,11.48
2023-05-19T03:24:03.797Z,11.50
2023-05-19T03:26:30.548Z,11.49
2023-05-19T03:28:58.541Z,11.42
2023-05-19T03:31:26.782Z,11.30
2023-05-19T03:33:53.559Z,11.32
2023-05-19T03:36:20.335Z,11.31
2023-05-19T03:38:47.079Z,11.35
2023-05-19T03:41:13.834Z,11.40
2023-05-19T03:43:40.531Z,11.27
2023-05-19T03:46:08.557Z,11.39
2023-05-19T03:48:35.535Z,11.38
2023-05-19T03:51:02.176Z,11.36
2023-05-19T03:53:30.280Z,11.38
2023-05-19T03:55:57.014Z,11.41
2023-05-19T03:58:24.178Z,11.27
2023-05-19T04:00:51.051Z,11.25
2023-05-19T04:03:19.175Z,11.30
2023-05-19T04:05:46.018Z,11.24
2023-05-19T04:08:12.649Z,11.29
2023-05-19T04:10:39.354Z,11.27
2023-05-19T04:13:06.205Z,11.18
2023-05-19T04:15:32.944Z,11.21
2023-05-19T04:17:59.670Z,11.13
2023-05-19T04:20:27.828Z,10.28
2023-05-19T04:22:54.499Z,10.23
2023-05-19T04:25:21.165Z,10.48
2023-05-19T04:27:48.744Z,9.57
2023-05-19T04:30:22.144Z,9.17
2023-05-19T04:32:51.683Z,9.06
2023-05-19T04:35:19.413Z,9.74
2023-05-19T04:37:48.427Z,10.08
2023-05-19T04:40:15.786Z,10.76
2023-05-19T04:42:42.834Z,10.96
2023-05-19T04:45:12.264Z,11.05
2023-05-19T04:47:39.055Z,11.08
2023-05-19T04:50:07.382Z,10.68
2023-05-19T04:52:34.114Z,10.35
2023-05-19T04:55:02.219Z,10.51
2023-05-19T04:57:28.866Z,10.60
2023-05-19T05:00:00.139Z,10.87
2023-05-19T05:02:30.074Z,10.85
2023-05-19T05:04:56.773Z,10.97
2023-05-19T05:07:23.783Z,10.54
2023-05-19T05:09:50.425Z,10.92
2023-05-19T05:12:19.613Z,10.98
2023-05-19T05:14:46.892Z,9.34
2023-05-19T05:17:14.144Z,9.31
2023-05-19T05:19:41.339Z,9.17
2023-05-19T05:22:08.585Z,8.87
2023-05-19T05:24:35.949Z,9.07
2023-05-19T05:27:02.598Z,9.09
2023-05-19T05:29:30.945Z,9.21
2023-05-19T05:31:57.866Z,10.38
2023-05-19T05:34:24.866Z,10.10
2023-05-19T05:36:51.446Z,9.11
2023-05-19T05:39:18.086Z,9.00
2023-05-19T05:41:44.782Z,9.75
2023-05-19T05:44:11.484Z,8.76
2023-05-19T05:46:39.926Z,8.95
2023-05-19T05:49:07.043Z,9.63
2023-05-19T05:51:34.310Z,9.07
2023-05-19T05:54:02.702Z,10.04
2023-05-19T05:56:29.797Z,9.57
2023-05-19T05:58:56.779Z,9.20
2023-05-19T06:01:24.041Z,9.48
2023-05-19T06:03:52.141Z,9.90
2023-05-19T06:06:21.718Z,9.15
2023-05-19T06:08:48.387Z,9.02
2023-05-19T06:11:15.041Z,8.86
2023-05-19T06:13:41.754Z,9.65
2023-05-19T06:16:09.748Z,9.68
2023-05-19T06:18:36.794Z,9.25
2023-05-19T06:21:04.913Z,9.47
2023-05-19T06:23:31.641Z,9.92
2023-05-19T06:25:58.303Z,10.26
2023-05-19T06:28:25.009Z,10.52
2023-05-19T06:30:51.786Z,9.98
2023-05-19T06:33:18.459Z,10.27
2023-05-19T06:35:45.327Z,10.50
2023-05-19T06:38:13.350Z,10.03
2023-05-19T06:40:40.555Z,9.83
2023-05-19T06:43:07.246Z,9.07
2023-05-19T06:45:33.896Z,8.52
2023-05-19T06:48:00.799Z,8.55
2023-05-19T06:50:27.651Z,9.71
2023-05-19T06:52:54.600Z,10.35
2023-05-19T06:55:22.831Z,9.79
2023-05-19T06:57:49.468Z,9.42
2023-05-19T07:00:19.933Z,9.15
2023-05-19T07:02:48.833Z,10.22
2023-05-19T07:05:15.652Z,10.34
2023-05-19T07:07:43.320Z,9.59
2023-05-19T07:10:11.007Z,9.45
2023-05-19T07:12:39.026Z,9.19
2023-05-19T07:15:06.757Z,8.98
2023-05-19T07:17:33.463Z,9.45
2023-05-19T07:20:01.584Z,9.73
2023-05-19T07:22:28.274Z,9.98
2023-05-19T07:24:57.047Z,10.17
2023-05-19T07:27:23.757Z,10.32
2023-05-19T07:29:52.035Z,10.36
2023-05-19T07:32:18.905Z,9.85
2023-05-19T07:34:45.786Z,10.25
2023-05-19T07:37:12.508Z,9.28
2023-05-19T07:39:39.139Z,9.78
2023-05-19T07:42:06.039Z,10.25
2023-05-19T07:44:32.786Z,9.90
2023-05-19T07:47:02.106Z,10.12
2023-05-19T07:49:29.400Z,9.72
2023-05-19T07:51:56.568Z,9.45
2023-05-19T07:54:23.224Z,9.20
2023-05-19T07:56:49.966Z,9.86
2023-05-19T07:59:16.701Z,10.41
2023-05-19T08:01:43.557Z,10.09
2023-05-19T08:04:13.154Z,9.89
2023-05-19T08:06:40.215Z,10.09
2023-05-19T08:09:06.864Z,9.60
2023-05-19T08:11:33.608Z,9.35
2023-05-19T08:14:00.388Z,9.24
2023-05-19T08:16:27.079Z,9.43
2023-05-19T08:18:54.980Z,9.69
2023-05-19T08:21:23.116Z,9.81
2023-05-19T08:23:49.760Z,9.69
2023-05-19T08:26:16.493Z,9.60
2023-05-19T08:28:44.180Z,9.48
2023-05-19T08:31:11.008Z,9.61
2023-05-19T08:33:37.978Z,9.89
2023-05-19T08:36:05.481Z,10.18
2023-05-19T08:38:33.525Z,9.74
2023-05-19T08:41:00.424Z,9.82
2023-05-19T08:43:27.499Z,10.06
2023-05-19T08:45:55.505Z,10.58
2023-05-19T08:48:27.032Z,10.74
2023-05-19T08:51:01.921Z,10.71
2023-05-19T08:53:36.942Z,10.77
2023-05-19T08:56:10.857Z,10.73
2023-05-19T08:58:39.550Z,10.24
2023-05-19T09:01:07.847Z,10.75
2023-05-19T09:03:39.248Z,10.82
2023-05-19T09:06:07.381Z,10.67
2023-05-19T09:08:36.102Z,10.73
2023-05-19T09:11:02.823Z,10.17
2023-05-19T09:13:29.490Z,10.52
2023-05-19T09:15:57.403Z,10.68
2023-05-19T09:18:26.047Z,10.87
2023-05-19T09:21:00.379Z,10.86
2023-05-19T09:23:29.511Z,11.02
2023-05-19T09:25:57.656Z,11.08
2023-05-19T09:28:26.040Z,11.09
2023-05-19T09:31:02.653Z,11.55
2023-05-19T09:33:30.011Z,11.27
2023-05-19T09:35:57.203Z,11.18
2023-05-19T09:38:24.828Z,11.17
2023-05-19T09:40:58.410Z,13.67
2023-05-19T09:43:27.648Z,14.07
2023-05-19T09:45:55.716Z,13.10
2023-05-19T09:48:24.230Z,11.68
2023-05-19T09:50:53.082Z,12.66
2023-05-19T09:53:21.289Z,11.71
2023-05-19T09:55:48.535Z,11.76
2023-05-19T09:58:18.976Z,13.75
2023-05-19T10:00:47.008Z,13.92
2023-05-19T10:03:14.762Z,12.21
2023-05-19T10:05:42.675Z,12.16
2023-05-19T10:08:10.540Z,13.38
2023-05-19T10:10:38.186Z,14.06
2023-05-19T10:13:06.114Z,12.82
2023-05-19T10:15:40.751Z,12.35
2023-05-19T10:18:16.074Z,12.46
2023-05-19T10:20:43.646Z,11.89
2023-05-19T10:23:10.372Z,12.36
2023-05-19T10:25:38.476Z,11.92
2023-05-19T10:28:09.396Z,11.86
2023-05-19T10:30:40.985Z,11.86
2023-05-19T10:33:12.196Z,12.72
2023-05-19T10:36:08.286Z,14.59
2023-05-19T10:38:43.096Z,12.60
2023-05-19T10:41:13.943Z,12.28
2023-05-19T10:43:54.522Z,12.60
2023-05-19T10:46:28.416Z,12.81
2023-05-19T10:48:55.793Z,14.45
2023-05-19T10:51:28.731Z,13.63
2023-05-19T10:53:55.364Z,13.81
2023-05-19T10:56:30.281Z,13.20
2023-05-19T10:58:57.205Z,12.80
2023-05-19T11:01:31.802Z,14.22
2023-05-19T11:04:05.606Z,14.66
2023-05-19T11:06:33.953Z,14.94
2023-05-19T11:09:05.661Z,13.97
2023-05-19T11:11:45.356Z,13.47
2023-05-19T11:14:14.838Z,14.00
2023-05-19T11:16:43.322Z,13.38
2023-05-19T11:19:19.949Z,13.10
2023-05-19T11:21:52.350Z,12.78
2023-05-19T11:24:39.915Z,12.64
2023-05-19T11:27:27.607Z,12.52
2023-05-19T11:29:55.715Z,12.90
2023-05-19T11:32:27.093Z,13.17
2023-05-19T11:34:55.743Z,13.70
2023-05-19T11:37:22.748Z,12.99
2023-05-19T11:39:50.764Z,12.46
2023-05-19T11:42:17.579Z,12.70
2023-05-19T11:44:47.567Z,13.93
2023-05-19T11:47:15.449Z,14.18
2023-05-19T11:49:45.835Z,14.51
2023-05-19T11:52:13.271Z,14.33
2023-05-19T11:54:41.880Z,13.45
2023-05-19T11:57:09.928Z,14.41
2023-05-19T11:59:40.594Z,14.65
2023-05-19T12:02:17.476Z,13.99
2023-05-19T12:04:46.062Z,13.31
2023-05-19T12:07:13.816Z,12.90
2023-05-19T12:09:40.548Z,13.97
2023-05-19T12:12:07.899Z,14.54
2023-05-19T12:14:35.862Z,14.64
2023-05-19T12:17:10.559Z,13.20
2023-05-19T12:19:37.634Z,13.98
2023-05-19T12:22:07.416Z,14.67
2023-05-19T12:24:34.944Z,14.56
2023-05-19T12:27:12.503Z,14.45
2023-05-19T12:29:39.842Z,14.47
2023-05-19T12:32:08.173Z,14.40
2023-05-19T12:34:36.319Z,14.23
2023-05-19T12:37:05.088Z,14.14
2023-05-19T12:39:32.483Z,14.38
2023-05-19T12:42:02.952Z,14.15
2023-05-19T12:44:31.377Z,14.11
2023-05-19T12:46:59.417Z,14.08
2023-05-19T12:49:26.147Z,14.00
2023-05-19T12:51:53.180Z,14.21
2023-05-19T12:54:21.958Z,14.23
2023-05-19T12:56:52.126Z,14.16
2023-05-19T12:59:34.840Z,14.08
2023-05-19T13:02:04.910Z,13.99
2023-05-19T13:04:31.956Z,13.59
2023-05-19T13:06:58.578Z,13.68
2023-05-19T13:09:30.430Z,13.68
2023-05-19T13:11:58.762Z,13.48
2023-05-19T13:14:25.486Z,13.39
2023-05-19T13:16:52.115Z,13.38
2023-05-19T13:21:52.904Z,13.53
2023-05-19T13:24:19.595Z,13.41
2023-05-19T13:26:48.210Z,13.55
2023-05-19T13:29:15.187Z,13.56
2023-05-19T13:31:41.945Z,13.39
2023-05-19T13:34:08.698Z,13.44
2023-05-19T13:36:36.564Z,13.38
2023-05-19T13:39:03.579Z,13.21
2023-05-19T13:41:30.305Z,13.17
2023-05-19T13:43:59.783Z,13.02
2023-05-19T13:46:36.517Z,13.05
2023-05-19T13:49:10.526Z,13.06
2023-05-19T13:51:37.653Z,13.16
2023-05-19T13:54:05.059Z,13.18
2023-05-19T13:56:31.909Z,13.15
2023-05-19T13:58:59.869Z,13.13
2023-05-19T14:01:26.566Z,13.16
2023-05-19T14:03:53.565Z,13.16
2023-05-19T14:06:20.433Z,13.08
2023-05-19T14:08:47.136Z,13.09
2023-05-19T14:11:18.071Z,13.05
2023-05-19T14:13:44.813Z,13.16
2023-05-19T14:16:12.816Z,13.09
2023-05-19T14:18:39.530Z,13.27
2023-05-19T14:21:06.234Z,13.31
2023-05-19T14:23:32.909Z,13.28
2023-05-19T14:25:59.691Z,13.23
2023-05-19T14:28:26.694Z,13.08
2023-05-19T14:30:53.542Z,13.07
2023-05-19T14:33:22.331Z,12.98
2023-05-19T14:35:49.049Z,12.83
2023-05-19T14:38:15.849Z,12.94
2023-05-19T14:40:43.013Z,12.92
2023-05-19T14:43:09.761Z,12.99
2023-05-19T14:45:36.547Z,12.89
2023-05-19T14:48:03.346Z,12.81
2023-05-19T14:50:31.662Z,12.79
2023-05-19T14:52:58.509Z,12.85
2023-05-19T14:55:25.425Z,12.78
2023-05-19T14:57:52.085Z,12.69
2023-05-19T15:00:19.256Z,12.69
2023-05-19T15:02:46.268Z,12.70
2023-05-19T15:05:13.003Z,12.66
2023-05-19T15:07:40.973Z,12.54
2023-05-19T15:10:08.517Z,12.51
2023-05-19T15:12:35.524Z,12.53
2023-05-19T15:15:02.339Z,12.43
2023-05-19T15:17:29.035Z,12.48
2023-05-19T15:19:55.809Z,12.51
2023-05-19T15:22:22.414Z,12.41
2023-05-19T15:24:50.620Z,12.54
2023-05-19T15:27:17.381Z,12.72
2023-05-19T15:29:44.746Z,12.64
2023-05-19T15:32:11.528Z,12.62
2023-05-19T15:34:38.214Z,12.62
2023-05-19T15:37:05.403Z,12.66
2023-05-19T15:39:33.923Z,12.49
2023-05-19T15:42:02.145Z,12.56
2023-05-19T15:44:29.420Z,12.55
2023-05-19T15:46:56.135Z,12.64
2023-05-19T15:49:23.720Z,12.57
2023-05-19T15:51:50.417Z,12.51
2023-05-19T15:54:17.026Z,12.42
2023-05-19T15:56:43.900Z,12.50
2023-05-19T15:59:11.840Z,12.45
2023-05-19T16:01:38.530Z,12.37
2023-05-19T16:04:05.375Z,12.35
2023-05-19T16:06:32.390Z,12.35
2023-05-19T16:08:59.165Z,12.31
2023-05-19T16:11:26.781Z,12.40
2023-05-19T16:13:53.690Z,12.51
2023-05-19T16:16:21.753Z,12.61
2023-05-19T16:18:48.588Z,12.51
2023-05-19T16:21:15.374Z,12.54
2023-05-19T16:23:42.191Z,12.55
2023-05-19T16:26:08.886Z,12.69
2023-05-19T16:28:35.574Z,12.60
2023-05-19T16:31:02.279Z,12.54
2023-05-19T16:33:30.516Z,12.64
2023-05-19T16:35:58.215Z,12.51
2023-05-19T16:38:24.951Z,12.47
2023-05-19T16:40:51.999Z,12.49
2023-05-19T16:43:18.692Z,12.58
2023-05-19T16:45:45.394Z,12.59
2023-05-19T16:48:12.222Z,12.49
2023-05-19T16:50:40.506Z,12.52
2023-05-19T16:53:07.235Z,12.45
2023-05-19T16:55:33.955Z,12.50
2023-05-19T16:58:00.605Z,12.45
2023-05-19T17:00:29.382Z,12.51
2023-05-19T17:02:56.290Z,12.54
2023-05-19T17:05:23.120Z,12.61
2023-05-19T17:07:51.271Z,12.62
2023-05-19T17:10:18.408Z,12.42
2023-05-19T17:12:45.109Z,12.49
2023-05-19T17:15:12.044Z,12.46
2023-05-19T17:17:38.747Z,12.41
2023-05-19T17:20:07.281Z,12.49
2023-05-19T17:22:33.919Z,12.51
2023-05-19T17:25:01.993Z,12.39
2023-05-19T17:27:28.716Z,12.45
2023-05-19T17:29:55.502Z,12.60
2023-05-19T17:32:25.780Z,12.68
2023-05-19T17:34:52.871Z,12.79
2023-05-19T17:37:23.392Z,12.71
2023-05-19T17:39:50.282Z,12.72
2023-05-19T17:42:18.379Z,12.80
2023-05-19T17:44:45.053Z,12.83
2023-05-19T17:47:11.774Z,12.75
2023-05-19T17:49:40.145Z,12.88
2023-05-19T17:52:07.919Z,12.88
2023-05-19T17:54:35.190Z,12.86
2023-05-19T17:57:03.533Z,12.89
2023-05-19T17:59:32.381Z,12.87
2023-05-19T18:01:59.613Z,12.91
2023-05-19T18:04:27.012Z,12.91
2023-05-19T18:06:55.727Z,12.91
2023-05-19T18:09:23.451Z,12.91
2023-05-19T18:11:50.067Z,12.92
2023-05-19T18:14:16.686Z,12.92
2023-05-19T18:16:44.810Z,12.92
2023-05-19T18:19:11.685Z,12.92
2023-05-19T18:21:38.335Z,12.92
2023-05-19T18:24:05.920Z,12.92
2023-05-19T18:26:33.552Z,12.92
2023-05-19T18:29:02.751Z,12.93
2023-05-19T18:31:29.733Z,12.91
2023-05-19T18:33:57.710Z,12.93
2023-05-19T18:36:24.398Z,12.91
2023-05-19T18:38:51.023Z,12.93
2023-05-19T18:41:17.680Z,12.93
2023-05-19T18:43:44.599Z,12.96
2023-05-19T18:46:11.435Z,12.94
2023-05-19T18:48:38.118Z,12.94
2023-05-19T18:51:07.237Z,12.97
2023-05-19T18:53:34.696Z,12.92
2023-05-19T18:56:01.407Z,12.93
2023-05-19T18:58:28.042Z,12.94
2023-05-19T19:00:55.229Z,12.96
2023-05-19T19:03:21.863Z,12.97
2023-05-19T19:05:54.265Z,12.93
2023-05-19T19:08:25.214Z,12.94
2023-05-19T19:10:52.133Z,12.98
2023-05-19T19:13:19.046Z,12.97
2023-05-19T19:15:45.872Z,12.96
2023-05-19T19:18:12.761Z,13.01
2023-05-19T19:20:39.409Z,13.00
2023-05-19T19:23:06.760Z,12.96
2023-05-19T19:25:35.079Z,12.72
2023-05-19T19:28:02.300Z,12.64
2023-05-19T19:30:29.420Z,12.85
2023-05-19T19:32:56.994Z,12.90
2023-05-19T19:35:26.536Z,12.94
2023-05-19T19:37:53.300Z,12.98
2023-05-19T19:40:19.965Z,12.97
2023-05-19T19:42:48.208Z,12.99
2023-05-19T19:45:15.853Z,12.94
2023-05-19T19:47:42.993Z,12.78
2023-05-19T19:50:11.510Z,12.15
2023-05-19T19:52:38.372Z,12.41
2023-05-19T19:55:06.143Z,12.77
2023-05-19T19:57:34.260Z,12.88
2023-05-19T20:00:08.488Z,12.84
2023-05-19T20:02:41.030Z,11.85
2023-05-19T20:05:12.782Z,12.67
2023-05-19T20:07:39.515Z,12.84
2023-05-19T20:10:06.900Z,12.86
2023-05-19T20:12:33.642Z,12.91
2023-05-19T20:15:00.421Z,12.93
2023-05-19T20:17:28.772Z,12.89
2023-05-19T20:19:56.298Z,12.90
2023-05-19T20:22:23.032Z,12.88
2023-05-19T20:24:49.722Z,12.44
2023-05-19T20:27:16.373Z,12.54
2023-05-19T20:29:43.129Z,12.79
2023-05-19T20:32:09.817Z,12.85
2023-05-19T20:34:38.091Z,12.89
2023-05-19T20:37:05.191Z,12.90
2023-05-19T20:39:31.883Z,12.87
2023-05-19T20:41:58.597Z,12.87
2023-05-19T20:44:25.311Z,12.88
2023-05-19T20:46:51.968Z,12.94
2023-05-19T20:49:19.209Z,12.93
2023-05-19T20:51:47.355Z,12.90
2023-05-19T20:54:14.305Z,12.88
2023-05-19T20:56:41.066Z,12.88
2023-05-19T20:59:07.837Z,12.89
2023-05-19T21:01:34.566Z,12.90
2023-05-19T21:04:01.370Z,12.95
2023-05-19T21:06:28.053Z,12.49
2023-05-19T21:08:56.232Z,11.93
2023-05-19T21:11:23.029Z,12.02
2023-05-19T21:13:51.239Z,12.60
2023-05-19T21:16:17.895Z,12.77
2023-05-19T21:18:44.711Z,12.86
2023-05-19T21:21:11.844Z,12.89
2023-05-19T21:23:38.715Z,12.89
2023-05-19T21:26:07.317Z,12.88
2023-05-19T21:28:34.062Z,12.89
2023-05-19T21:31:00.930Z,12.89
2023-05-19T21:33:27.653Z,12.90
2023-05-19T21:35:54.368Z,12.53
2023-05-19T21:38:23.894Z,12.22
2023-05-19T21:40:51.204Z,12.68
2023-05-19T21:43:19.668Z,12.79
2023-05-19T21:45:46.350Z,12.83
2023-05-19T21:48:13.139Z,12.82
2023-05-19T21:50:39.893Z,12.84
2023-05-19T21:53:06.598Z,12.86
2023-05-19T21:55:40.754Z,12.81
2023-05-19T21:58:07.445Z,12.85
2023-05-19T22:00:36.814Z,12.85
2023-05-19T22:03:03.758Z,12.76
2023-05-19T22:05:31.969Z,12.27
2023-05-19T22:07:58.669Z,11.88
2023-05-19T22:10:25.447Z,11.80
2023-05-19T22:12:52.133Z,12.20
2023-05-19T22:15:18.956Z,12.61
2023-05-19T22:17:47.097Z,12.70
2023-05-19T22:20:13.861Z,12.72
2023-05-19T22:22:40.767Z,12.62
2023-05-19T22:25:08.221Z,12.52
2023-05-19T22:27:34.846Z,11.84
2023-05-19T22:30:01.514Z,11.42
2023-05-19T22:32:28.594Z,10.96
2023-05-19T22:34:56.626Z,10.95
2023-05-19T22:37:24.198Z,12.04
2023-05-19T22:39:51.505Z,12.43
2023-05-19T22:42:18.562Z,12.57
2023-05-19T22:44:45.847Z,12.63
2023-05-19T22:47:13.962Z,12.66
2023-05-19T22:49:40.832Z,12.65
2023-05-19T22:52:10.758Z,12.61
2023-05-19T22:54:37.842Z,12.67
2023-05-19T22:57:05.159Z,12.66
2023-05-19T22:59:31.948Z,12.67
2023-05-19T23:01:58.678Z,12.70
2023-05-19T23:04:25.776Z,12.68
2023-05-19T23:06:52.634Z,12.70
2023-05-19T23:09:21.785Z,12.67
2023-05-19T23:11:48.585Z,12.66
2023-05-19T23:14:15.325Z,12.69
2023-05-19T23:16:42.024Z,12.72
2023-05-19T23:19:08.709Z,12.73
2023-05-19T23:21:36.040Z,12.72
2023-05-19T23:24:02.763Z,12.68
2023-05-19T23:26:30.687Z,12.65
2023-05-19T23:28:57.352Z,12.65
2023-05-19T23:31:24.191Z,12.64
2023-05-19T23:33:50.908Z,12.66
2023-05-19T23:36:17.840Z,12.66
2023-05-19T23:38:44.465Z,12.61
2023-05-19T23:41:11.156Z,12.66
2023-05-19T23:43:39.198Z,12.66
2023-05-19T23:46:06.037Z,12.66
2023-05-19T23:48:33.628Z,12.61
2023-05-19T23:51:00.363Z,12.58
2023-05-19T23:53:26.944Z,12.60
2023-05-19T23:55:53.647Z,12.62
2023-05-19T23:58:20.628Z,12.68
